Time;durP1;ratioP1;P1;durP2;ratioP2;P2;SDS_P1;SDS_P2;PMS_P1;PMS_P2;Temp;Humidity;BMP_temperature;BMP_pressure;BME280_temperature;BME280_humidity;BME280_pressure;Samples;Min_cycle;Max_cycle;Signal;HPM_P1;HPM_P2
2021/11/25 00:01:27;;;;;;;;;;;;;;;7.32;77.63;101532.19;5041385;28;19916;-65
2021/11/25 00:03:54;;;;;;;;;;;;;;;7.28;78.12;101522.50;5050423;28;20021;-65
2021/11/25 00:06:20;;;;;;;;;;;;;;;7.29;78.47;101523.38;5038256;28;20007;-66
2021/11/25 00:08:45;;;;;;;;;;;;;;;7.29;76.88;101532.09;5046107;28;20234;-65
2021/11/25 00:11:10;;;;;;;;;;;;;;;7.23;77.55;101524.13;5040314;28;19968;-65
2021/11/25 00:13:35;;;;;;;;;;;;;;;7.19;77.11;101522.31;5057506;28;19929;-65
2021/11/25 00:16:02;;;;;;;;;;;;;;;7.25;77.15;101521.56;5060469;28;19924;-65
2021/11/25 00:18:27;;;;;;;;;;;;;;;7.25;77.96;101516.31;5086629;28;19968;-66
2021/11/25 00:20:53;;;;;;;;;;;;;;;7.23;77.63;101516.28;5042723;28;19917;-65
2021/11/25 00:23:18;;;;;;;;;;;;;;;7.19;77.65;101517.06;5044870;28;19967;-64
2021/11/25 00:25:43;;;;;;;;;;;;;;;7.20;77.63;101513.59;5038850;28;19935;-65
2021/11/25 00:28:09;;;;;;;;;;;;;;;7.19;78.29;101502.25;5045556;28;19926;-65
2021/11/25 00:30:34;;;;;;;;;;;;;;;7.22;77.79;101512.81;5051146;28;19922;-65
2021/11/25 00:32:59;;;;;;;;;;;;;;;7.23;77.81;101513.66;5044848;28;19926;-65
2021/11/25 00:35:24;;;;;;;;;;;;;;;7.23;78.03;101511.06;5040033;28;19917;-64
2021/11/25 00:37:50;;;;;;;;;;;;;;;7.27;77.67;101509.41;5041196;28;20351;-65
2021/11/25 00:40:16;;;;;;;;;;;;;;;7.28;77.61;101506.81;5041991;28;19932;-65
2021/11/25 00:42:42;;;;;;;;;;;;;;;7.26;77.94;101507.63;5042009;28;19927;-64
2021/11/25 00:45:08;;;;;;;;;;;;;;;7.19;77.82;101504.88;5048598;28;20012;-65
2021/11/25 00:47:34;;;;;;;;;;;;;;;7.18;77.63;101499.59;5053927;28;19956;-65
2021/11/25 00:49:59;;;;;;;;;;;;;;;7.19;77.24;101499.66;5047787;28;19927;-65
2021/11/25 00:52:26;;;;;;;;;;;;;;;7.20;76.42;101504.03;5043950;28;20381;-65
2021/11/25 00:54:51;;;;;;;;;;;;;;;7.21;75.82;101497.06;5042756;28;19917;-66
2021/11/25 00:57:17;;;;;;;;;;;;;;;7.23;75.70;101493.63;5044279;28;19929;-65
2021/11/25 00:59:42;;;;;;;;;;;;;;;7.25;76.10;101492.81;5053470;28;19925;-65
2021/11/25 01:02:07;;;;;;;;;;;;;;;7.23;75.56;101491.03;5048292;28;20043;-65
2021/11/25 01:04:33;;;;;;;;;;;;;;;7.23;75.25;101488.41;5053764;28;19932;-64
2021/11/25 01:06:58;;;;;;;;;;;;;;;7.26;75.74;101490.22;5033574;28;19921;-66
2021/11/25 01:09:23;;;;;;;;;;;;;;;7.23;75.50;101485.78;5040698;28;19921;-64
2021/11/25 01:11:48;;;;;;;;;;;;;;;7.21;74.74;101487.50;5041559;28;19924;-64
2021/11/25 01:14:15;;;;;;;;;;;;;;;7.25;74.95;101472.75;5045190;28;19921;-65
2021/11/25 01:16:40;;;;;;;;;;;;;;;7.24;75.59;101478.84;5058171;28;19921;-64
2021/11/25 01:19:06;;;;;;;;;;;;;;;7.19;75.62;101476.13;5043317;28;19928;-65
2021/11/25 01:21:31;;;;;;;;;;;;;;;7.20;75.97;101480.53;5058753;28;19925;-65
2021/11/25 01:23:56;;;;;;;;;;;;;;;7.18;75.70;101487.44;5056855;28;19931;-65
2021/11/25 01:26:22;;;;;;;;;;;;;;;7.17;76.51;101485.66;5043370;28;19935;-65
2021/11/25 01:28:47;;;;;;;;;;;;;;;7.17;77.37;101484.78;5034147;28;19917;-65
2021/11/25 01:31:12;;;;;;;;;;;;;;;7.18;76.90;101483.94;5044524;28;20583;-65
2021/11/25 01:33:37;;;;;;;;;;;;;;;7.15;77.06;101487.38;5045783;28;19947;-65
2021/11/25 01:36:03;;;;;;;;;;;;;;;7.15;77.23;101487.38;5039467;28;19920;-64
2021/11/25 01:38:29;;;;;;;;;;;;;;;7.16;78.12;101490.84;5037760;28;20365;-65
2021/11/25 01:40:54;;;;;;;;;;;;;;;7.13;78.23;101491.69;5046113;28;19921;-66
2021/11/25 01:43:21;;;;;;;;;;;;;;;7.18;78.98;101484.84;5045840;28;19925;-65
2021/11/25 01:45:48;;;;;;;;;;;;;;;7.14;79.60;101482.97;5053773;28;19917;-65
2021/11/25 01:48:14;;;;;;;;;;;;;;;7.11;79.54;101480.31;5050839;28;19924;-65
2021/11/25 01:50:39;;;;;;;;;;;;;;;7.09;79.72;101475.88;5051023;28;19925;-65
2021/11/25 01:53:04;;;;;;;;;;;;;;;7.11;80.68;101482.06;5049835;28;19972;-65
2021/11/25 01:55:30;;;;;;;;;;;;;;;7.13;80.61;101467.28;5045518;28;20388;-64
2021/11/25 01:57:55;;;;;;;;;;;;;;;7.14;80.66;101471.66;5045163;28;19932;-65
2021/11/25 02:00:26;;;;;;;;;;;;;;;7.13;80.56;101462.94;5042776;28;19921;-65
2021/11/25 02:02:52;;;;;;;;;;;;;;;7.11;81.61;101461.16;5040879;28;19917;-64
2021/11/25 02:05:18;;;;;;;;;;;;;;;7.12;82.24;101455.91;5044531;28;20371;-65
2021/11/25 02:07:43;;;;;;;;;;;;;;;7.13;81.66;101454.22;5041861;28;19936;-64
2021/11/25 02:10:09;;;;;;;;;;;;;;;7.12;81.93;101445.47;5032795;28;19961;-64
2021/11/25 02:12:34;;;;;;;;;;;;;;;7.11;82.55;101448.06;5045083;28;19925;-65
2021/11/25 02:15:00;;;;;;;;;;;;;;;7.10;82.60;101444.56;5039218;28;19928;-65
2021/11/25 02:17:26;;;;;;;;;;;;;;;7.11;82.56;101445.47;5058332;28;19924;-64
2021/11/25 02:19:51;;;;;;;;;;;;;;;7.07;82.98;101451.44;5053981;28;19931;-64
2021/11/25 02:22:18;;;;;;;;;;;;;;;7.03;83.29;101442.66;5041719;28;19921;-64
2021/11/25 02:24:43;;;;;;;;;;;;;;;7.04;83.32;101439.19;5036247;28;19917;-64
2021/11/25 02:27:09;;;;;;;;;;;;;;;7.02;83.30;101441.78;5040419;28;19924;-65
2021/11/25 02:29:34;;;;;;;;;;;;;;;7.01;83.38;101439.13;5036234;28;19918;-64
2021/11/25 02:31:59;;;;;;;;;;;;;;;7.01;83.59;101429.56;5040714;28;20055;-64
2021/11/25 02:34:24;;;;;;;;;;;;;;;7.01;83.99;101429.56;5042886;28;19977;-64
2021/11/25 02:36:50;;;;;;;;;;;;;;;6.97;83.43;101422.50;5038029;28;19917;-64
2021/11/25 02:39:15;;;;;;;;;;;;;;;6.99;84.20;101431.28;5042864;28;19921;-65
2021/11/25 02:41:40;;;;;;;;;;;;;;;6.97;84.32;101429.44;5050534;28;20375;-65
2021/11/25 02:44:06;;;;;;;;;;;;;;;6.94;84.93;101426.78;5040183;28;19964;-65
2021/11/25 02:46:31;;;;;;;;;;;;;;;6.93;85.31;101425.88;5044551;28;19932;-65
2021/11/25 02:48:58;;;;;;;;;;;;;;;6.92;84.86;101418.00;5048989;28;19925;-64
2021/11/25 02:51:25;;;;;;;;;;;;;;;6.86;85.51;101412.66;5040896;28;19921;-65
2021/11/25 02:53:51;;;;;;;;;;;;;;;6.86;86.19;101417.88;5027654;28;19928;-64
2021/11/25 02:56:18;;;;;;;;;;;;;;;6.85;86.47;101419.63;5033006;28;20374;-64
2021/11/25 02:58:44;;;;;;;;;;;;;;;6.83;86.57;101409.13;5038033;28;19921;-64
2021/11/25 03:01:11;;;;;;;;;;;;;;;6.88;86.98;101397.88;5042356;28;19968;-64
2021/11/25 03:03:36;;;;;;;;;;;;;;;6.89;85.96;101397.06;5051735;28;19935;-65
2021/11/25 03:06:02;;;;;;;;;;;;;;;6.91;85.61;101395.34;5047883;28;19921;-64
2021/11/25 03:08:27;;;;;;;;;;;;;;;6.94;85.80;101388.47;5038854;28;19914;-64
2021/11/25 03:10:57;;;;;;;;;;;;;;;6.96;85.45;101391.13;5035646;28;19929;-65
2021/11/25 03:13:22;;;;;;;;;;;;;;;6.93;85.62;101394.53;5060011;28;19920;-65
2021/11/25 03:15:48;;;;;;;;;;;;;;;6.90;86.26;101393.56;5049751;28;19932;-64
2021/11/25 03:18:14;;;;;;;;;;;;;;;6.85;86.61;101396.09;5046758;28;19952;-66
2021/11/25 03:20:45;;;;;;;;;;;;;;;6.86;86.11;101391.75;5057980;28;19938;-66
2021/11/25 03:23:12;;;;;;;;;;;;;;;6.86;86.09;101391.75;5043846;28;19917;-66
2021/11/25 03:25:38;;;;;;;;;;;;;;;6.79;85.96;101389.00;5038540;28;19921;-67
2021/11/25 03:28:03;;;;;;;;;;;;;;;6.78;86.15;101391.59;5041979;28;19956;-66
2021/11/25 03:30:29;;;;;;;;;;;;;;;6.74;86.48;101384.53;5038518;28;19932;-65
2021/11/25 03:32:54;;;;;;;;;;;;;;;6.70;86.77;101380.97;5053711;28;20693;-67
2021/11/25 03:35:19;;;;;;;;;;;;;;;6.66;86.17;101383.47;5040039;28;20008;-66
2021/11/25 03:37:45;;;;;;;;;;;;;;;6.61;86.59;101376.41;5046521;28;19925;-65
2021/11/25 03:40:11;;;;;;;;;;;;;;;6.62;87.09;101383.41;5044454;28;19984;-66
2021/11/25 03:42:36;;;;;;;;;;;;;;;6.57;87.01;101374.56;5045913;28;19929;-65
2021/11/25 03:45:02;;;;;;;;;;;;;;;6.53;86.75;101374.47;5053788;28;20099;-65
2021/11/25 03:47:27;;;;;;;;;;;;;;;6.56;86.96;101378.03;5042873;28;19929;-65
2021/11/25 03:49:52;;;;;;;;;;;;;;;6.56;86.89;101377.13;5035467;28;20385;-66
2021/11/25 03:52:18;;;;;;;;;;;;;;;6.59;87.61;101374.63;5037502;28;19920;-65
2021/11/25 03:54:43;;;;;;;;;;;;;;;6.59;88.21;101378.09;5047534;28;19921;-65
2021/11/25 03:57:08;;;;;;;;;;;;;;;6.59;87.09;101370.25;5046082;28;19920;-66
2021/11/25 03:59:34;;;;;;;;;;;;;;;6.59;87.21;101370.25;5051269;28;19925;-65
2021/11/25 04:01:59;;;;;;;;;;;;;;;6.57;87.35;101365.88;5046925;28;19921;-65
2021/11/25 04:04:24;;;;;;;;;;;;;;;6.54;86.83;101369.28;5049582;28;19932;-65
2021/11/25 04:06:50;;;;;;;;;;;;;;;6.53;87.71;101371.88;5038367;28;19996;-65
2021/11/25 04:09:15;;;;;;;;;;;;;;;6.46;87.59;101360.38;5044506;28;20515;-65
2021/11/25 04:11:40;;;;;;;;;;;;;;;6.49;87.73;101359.59;5046524;28;19941;-65
2021/11/25 04:14:06;;;;;;;;;;;;;;;6.48;87.36;101352.59;5041103;28;19940;-65
2021/11/25 04:16:31;;;;;;;;;;;;;;;6.46;86.92;101352.56;5056891;28;19959;-66
2021/11/25 04:18:57;;;;;;;;;;;;;;;6.44;86.61;101351.63;5042605;28;19926;-65
2021/11/25 04:21:23;;;;;;;;;;;;;;;6.41;86.68;101356.81;5037033;28;19949;-64
2021/11/25 04:23:48;;;;;;;;;;;;;;;6.42;87.39;101366.38;5040119;28;19928;-65
2021/11/25 04:26:13;;;;;;;;;;;;;;;6.47;87.76;101363.91;5049002;28;19916;-65
2021/11/25 04:28:39;;;;;;;;;;;;;;;6.48;87.58;101363.03;5047174;28;20015;-64
2021/11/25 04:36:32;;;;;;;;;;;;;;;6.50;87.63;101354.38;5035395;28;19931;-65
2021/11/25 04:38:58;;;;;;;;;;;;;;;6.48;87.63;101352.59;5036829;28;19921;-65
2021/11/25 04:41:23;;;;;;;;;;;;;;;6.51;87.83;101350.94;5046455;28;19935;-64
2021/11/25 04:43:48;;;;;;;;;;;;;;;6.52;87.98;101337.06;5031294;28;19923;-65
2021/11/25 04:46:14;;;;;;;;;;;;;;;6.52;88.04;101346.59;5047420;28;19917;-65
2021/11/25 04:48:39;;;;;;;;;;;;;;;6.56;87.65;101348.41;5047144;28;19921;-66
2021/11/25 04:51:05;;;;;;;;;;;;;;;6.56;87.43;101338.88;5045872;28;19917;-64
2021/11/25 04:53:30;;;;;;;;;;;;;;;6.53;87.38;101344.03;5047463;28;19922;-65
2021/11/25 04:55:55;;;;;;;;;;;;;;;6.50;87.60;101332.63;5046540;28;19928;-65
2021/11/25 04:58:21;;;;;;;;;;;;;;;6.49;88.16;101336.09;5046674;28;19921;-65
2021/11/25 05:00:46;;;;;;;;;;;;;;;6.49;88.30;101329.13;5038646;28;19917;-64
2021/11/25 05:03:12;;;;;;;;;;;;;;;6.46;87.38;101329.06;5053947;28;20007;-65
2021/11/25 05:05:37;;;;;;;;;;;;;;;6.45;88.00;101322.09;5051918;28;20011;-66
2021/11/25 05:08:02;;;;;;;;;;;;;;;6.40;87.95;101318.47;5036620;28;19928;-65
2021/11/25 05:10:28;;;;;;;;;;;;;;;6.41;87.75;101315.03;5038749;28;19947;-65
2021/11/25 05:12:53;;;;;;;;;;;;;;;6.40;88.30;101311.53;5035748;28;19932;-65
2021/11/25 05:15:18;;;;;;;;;;;;;;;6.38;87.98;101315.84;5046229;28;19928;-65
2021/11/25 05:17:44;;;;;;;;;;;;;;;6.34;87.49;101314.00;5049595;28;19921;-65
2021/11/25 05:20:12;;;;;;;;;;;;;;;6.33;88.10;101306.13;5036667;28;20524;-65
2021/11/25 05:22:37;;;;;;;;;;;;;;;6.24;87.31;101312.91;5040218;28;19980;-64
2021/11/25 05:25:04;;;;;;;;;;;;;;;6.17;88.08;101318.81;5033599;28;19996;-65
2021/11/25 05:27:29;;;;;;;;;;;;;;;6.13;88.01;101323.94;5048577;28;19979;-65
2021/11/25 05:29:54;;;;;;;;;;;;;;;6.13;88.59;101323.94;5052201;28;19924;-66
2021/11/25 05:32:19;;;;;;;;;;;;;;;6.18;89.14;101318.00;5056576;28;19964;-66
2021/11/25 05:34:45;;;;;;;;;;;;;;;6.22;88.58;101324.16;5039214;28;20932;-65
2021/11/25 05:37:11;;;;;;;;;;;;;;;6.16;87.98;101332.72;5047235;28;19981;-65
2021/11/25 05:39:36;;;;;;;;;;;;;;;6.11;88.45;101326.50;5041795;28;19932;-65
2021/11/25 05:42:02;;;;;;;;;;;;;;;6.17;89.88;101321.44;5050648;28;20007;-65
2021/11/25 05:44:27;;;;;;;;;;;;;;;6.23;89.40;101332.00;5038538;28;19917;-65
2021/11/25 05:46:52;;;;;;;;;;;;;;;6.23;88.85;101332.00;5039518;28;19956;-65
2021/11/25 05:49:18;;;;;;;;;;;;;;;6.25;88.88;101332.06;5040655;28;19921;-65
2021/11/25 05:51:43;;;;;;;;;;;;;;;6.19;88.42;101331.91;5047114;28;19992;-65
2021/11/25 05:54:08;;;;;;;;;;;;;;;6.16;88.35;101335.34;5043319;28;19917;-64
2021/11/25 05:56:33;;;;;;;;;;;;;;;6.12;88.82;101333.47;5050281;28;19928;-65
2021/11/25 05:58:59;;;;;;;;;;;;;;;6.12;88.82;101330.88;5032123;28;19928;-65
2021/11/25 06:01:24;;;;;;;;;;;;;;;6.15;89.15;101319.63;5044517;28;19928;-65
2021/11/25 06:03:50;;;;;;;;;;;;;;;6.19;89.35;101329.31;5036572;28;19984;-65
2021/11/25 06:06:15;;;;;;;;;;;;;;;6.22;89.40;101329.38;5045550;28;19993;-64
2021/11/25 06:08:40;;;;;;;;;;;;;;;6.19;88.64;101324.97;5040207;28;19929;-66
2021/11/25 06:11:06;;;;;;;;;;;;;;;6.22;88.90;101329.38;5041000;28;19967;-65
2021/11/25 06:13:31;;;;;;;;;;;;;;;6.20;89.37;101321.50;5026987;28;20305;-65
2021/11/25 06:15:56;;;;;;;;;;;;;;;6.23;89.66;101325.91;5037098;28;19917;-64
2021/11/25 06:18:22;;;;;;;;;;;;;;;6.25;89.82;101324.22;5033057;28;19917;-64
2021/11/25 06:20:47;;;;;;;;;;;;;;;6.29;89.67;101318.22;5042878;28;19971;-65
2021/11/25 06:23:12;;;;;;;;;;;;;;;6.32;89.00;101320.91;5045110;28;19921;-66
2021/11/25 06:25:38;;;;;;;;;;;;;;;6.31;89.27;101310.44;5036328;28;20426;-65
2021/11/25 06:28:04;;;;;;;;;;;;;;;6.33;89.42;101309.66;5039292;28;19928;-66
2021/11/25 06:30:29;;;;;;;;;;;;;;;6.37;89.88;101311.47;5029201;28;19913;-65
2021/11/25 06:32:54;;;;;;;;;;;;;;;6.44;89.61;101312.47;5039891;28;19952;-64
2021/11/25 06:35:21;;;;;;;;;;;;;;;6.45;89.34;101311.66;5030453;28;20404;-65
2021/11/25 06:37:47;;;;;;;;;;;;;;;6.48;90.07;101305.59;5036644;28;19928;-65
2021/11/25 06:40:15;;;;;;;;;;;;;;;6.48;89.44;101303.88;5039841;28;19969;-65
2021/11/25 06:42:40;;;;;;;;;;;;;;;6.51;89.45;101298.72;5033585;28;19975;-66
2021/11/25 06:45:06;;;;;;;;;;;;;;;6.52;89.22;101292.66;5038849;28;19925;-65
2021/11/25 06:47:31;;;;;;;;;;;;;;;6.54;89.97;101290.97;5043421;28;20390;-66
2021/11/25 06:49:56;;;;;;;;;;;;;;;6.57;89.23;101298.84;5029250;28;19917;-65
2021/11/25 06:52:21;;;;;;;;;;;;;;;6.56;89.33;101299.72;5066287;28;19922;-65
2021/11/25 06:54:47;;;;;;;;;;;;;;;6.60;90.06;101306.75;5045518;28;19930;-65
2021/11/25 06:57:12;;;;;;;;;;;;;;;6.61;89.33;101303.28;5048856;28;19955;-65
2021/11/25 06:59:39;;;;;;;;;;;;;;;6.63;90.49;101303.31;5041182;28;19925;-66
2021/11/25 07:02:05;;;;;;;;;;;;;;;6.68;90.12;101298.22;5047205;28;19982;-65
2021/11/25 07:04:30;;;;;;;;;;;;;;;6.69;89.54;101292.13;5055078;28;19960;-64
2021/11/25 07:06:55;;;;;;;;;;;;;;;6.75;90.45;101294.91;5033505;28;19976;-65
2021/11/25 07:09:21;;;;;;;;;;;;;;;6.77;89.95;101291.47;5034725;28;19981;-64
2021/11/25 07:11:46;;;;;;;;;;;;;;;6.82;89.92;101286.31;5045566;28;19956;-64
2021/11/25 07:14:11;;;;;;;;;;;;;;;6.91;90.73;101285.63;5034528;28;19917;-65
2021/11/25 07:16:36;;;;;;;;;;;;;;;6.98;90.87;101287.53;5058131;28;20341;-65
2021/11/25 07:19:02;;;;;;;;;;;;;;;7.06;90.11;101280.72;5044380;28;19917;-65
2021/11/25 07:21:28;;;;;;;;;;;;;;;7.14;90.77;101294.78;5041765;28;20356;-65
2021/11/25 07:23:53;;;;;;;;;;;;;;;7.25;90.99;101284.56;5041761;28;19921;-64
2021/11/25 07:26:18;;;;;;;;;;;;;;;7.37;91.04;101295.25;5043014;28;19944;-64
2021/11/25 07:28:44;;;;;;;;;;;;;;;7.54;90.90;101302.50;5027765;28;19921;-65
2021/11/25 07:31:10;;;;;;;;;;;;;;;7.66;90.25;101301.88;5046193;28;19936;-65
2021/11/25 07:33:35;;;;;;;;;;;;;;;7.76;89.48;101299.41;5052138;28;19971;-63
2021/11/25 07:36:00;;;;;;;;;;;;;;;7.86;89.25;101304.81;5028794;28;19968;-66
2021/11/25 07:38:25;;;;;;;;;;;;;;;7.91;89.09;101304.03;5036318;28;19948;-65
2021/11/25 07:40:52;;;;;;;;;;;;;;;7.93;89.42;101304.06;5030287;28;19943;-65
2021/11/25 07:43:18;;;;;;;;;;;;;;;8.01;88.69;101305.06;5046265;28;19932;-64
2021/11/25 07:45:43;;;;;;;;;;;;;;;8.13;89.01;101304.41;5036733;28;19917;-65
2021/11/25 07:48:08;;;;;;;;;;;;;;;8.24;87.28;101302.84;5041834;28;19933;-65
2021/11/25 07:50:34;;;;;;;;;;;;;;;8.27;85.85;101299.38;5056477;28;19912;-64
2021/11/25 07:52:59;;;;;;;;;;;;;;;8.22;86.16;101299.28;5038689;28;19921;-64
2021/11/25 07:55:25;;;;;;;;;;;;;;;8.30;85.47;101297.69;5040093;28;19924;-65
2021/11/25 07:57:51;;;;;;;;;;;;;;;8.27;85.16;101291.50;5041070;28;20584;-65
2021/11/25 08:00:17;;;;;;;;;;;;;;;8.22;85.55;101299.28;5029178;28;19922;-64
2021/11/25 08:02:43;;;;;;;;;;;;;;;8.25;85.68;101301.09;5036898;28;19936;-64
2021/11/25 08:05:08;;;;;;;;;;;;;;;8.26;84.96;101298.50;5040677;28;19924;-63
2021/11/25 08:07:35;;;;;;;;;;;;;;;8.20;85.20;101298.38;5043276;28;19932;-65
2021/11/25 08:10:00;;;;;;;;;;;;;;;8.22;85.06;101307.13;5041722;28;19921;-66
2021/11/25 08:12:26;;;;;;;;;;;;;;;8.19;85.37;101318.44;5035871;28;19925;-64
2021/11/25 08:14:51;;;;;;;;;;;;;;;8.20;85.73;101324.56;5049587;28;19925;-64
2021/11/25 08:17:16;;;;;;;;;;;;;;;8.31;84.92;101328.22;5029532;28;19932;-65
2021/11/25 08:19:42;;;;;;;;;;;;;;;8.23;84.76;101326.38;5038598;28;20495;-65
2021/11/25 08:22:08;;;;;;;;;;;;;;;8.25;85.41;101325.53;5047603;28;19927;-66
2021/11/25 08:24:33;;;;;;;;;;;;;;;8.17;85.90;101327.16;5046657;28;19956;-67
2021/11/25 08:26:59;;;;;;;;;;;;;;;8.09;86.05;101323.50;5045626;28;19913;-66
2021/11/25 08:29:24;;;;;;;;;;;;;;;8.05;87.13;101324.31;5045464;28;19917;-66
2021/11/25 08:31:49;;;;;;;;;;;;;;;8.03;87.18;101321.66;5042449;28;20038;-66
2021/11/25 08:34:15;;;;;;;;;;;;;;;8.08;86.88;101321.75;5045542;28;19921;-66
2021/11/25 08:36:40;;;;;;;;;;;;;;;8.05;87.06;101316.47;5041985;28;19921;-65
2021/11/25 08:39:06;;;;;;;;;;;;;;;8.05;86.88;101314.72;5041206;28;19939;-65
2021/11/25 08:41:31;;;;;;;;;;;;;;;8.14;85.93;101312.25;5048880;28;19921;-65
2021/11/25 08:43:56;;;;;;;;;;;;;;;8.10;86.04;101305.22;5046130;28;19912;-65
2021/11/25 08:46:21;;;;;;;;;;;;;;;8.06;87.40;101307.78;5054096;28;19909;-66
2021/11/25 08:48:47;;;;;;;;;;;;;;;8.07;85.97;101313.03;5041427;28;19976;-65
2021/11/25 08:51:12;;;;;;;;;;;;;;;8.17;84.75;101308.81;5042581;28;19920;-65
2021/11/25 08:53:38;;;;;;;;;;;;;;;8.25;84.34;101309.81;5044638;28;20139;-65
2021/11/25 08:56:06;;;;;;;;;;;;;;;8.28;84.79;101311.59;5027626;28;19956;-67
2021/11/25 08:58:31;;;;;;;;;;;;;;;8.32;82.31;101313.41;5035099;28;20063;-67
2021/11/25 09:00:56;;;;;;;;;;;;;;;8.37;82.24;101317.88;5043686;28;20337;-67
2021/11/25 09:03:22;;;;;;;;;;;;;;;8.40;82.05;101315.28;5043077;28;20265;-67
2021/11/25 09:05:47;;;;;;;;;;;;;;;8.51;78.61;101322.47;5043781;28;20419;-67
2021/11/25 09:08:12;;;;;;;;;;;;;;;8.55;78.32;101324.25;5045797;28;19977;-68
2021/11/25 09:10:38;;;;;;;;;;;;;;;8.50;77.88;101333.78;5044701;28;20047;-68
2021/11/25 09:13:04;;;;;;;;;;;;;;;8.55;76.65;101327.75;5045969;28;19920;-67
2021/11/25 09:15:32;;;;;;;;;;;;;;;8.53;77.44;101329.47;5044479;28;19925;-67
2021/11/25 09:17:59;;;;;;;;;;;;;;;8.58;74.86;101327.81;5045553;28;19999;-66
2021/11/25 09:20:30;;;;;;;;;;;;;;;8.62;75.54;101327.81;5044882;28;19952;-67
2021/11/25 09:22:55;;;;;;;;;;;;;;;8.64;72.12;101324.41;5043286;28;19917;-66
2021/11/25 09:25:20;;;;;;;;;;;;;;;8.68;72.22;101335.81;5042356;28;19917;-64
2021/11/25 09:27:46;;;;;;;;;;;;;;;8.68;71.20;101328.81;5044219;28;19999;-64
2021/11/25 09:30:11;;;;;;;;;;;;;;;8.66;69.93;101335.78;5041070;28;20288;-65
2021/11/25 09:32:36;;;;;;;;;;;;;;;8.67;69.62;101349.75;5043738;28;20398;-65
2021/11/25 09:35:02;;;;;;;;;;;;;;;8.71;67.51;101334.06;5030341;28;19979;-65
2021/11/25 09:37:29;;;;;;;;;;;;;;;8.71;66.44;101334.06;5033773;28;19931;-63
2021/11/25 09:39:54;;;;;;;;;;;;;;;8.71;67.08;101335.81;5037293;28;19925;-64
2021/11/25 09:42:20;;;;;;;;;;;;;;;8.77;67.48;101334.19;5046762;28;19936;-63
2021/11/25 09:44:46;;;;;;;;;;;;;;;8.82;67.11;101338.59;5043266;28;19948;-64
2021/11/25 09:47:11;;;;;;;;;;;;;;;8.87;67.71;101327.31;5048729;28;19932;-64
2021/11/25 09:49:37;;;;;;;;;;;;;;;8.91;68.78;101336.09;5052235;28;19992;-63
2021/11/25 09:52:03;;;;;;;;;;;;;;;8.96;67.95;101335.31;5065021;28;19917;-68
2021/11/25 09:54:28;;;;;;;;;;;;;;;9.03;68.87;101330.13;5030479;28;19925;-64
2021/11/25 09:56:53;;;;;;;;;;;;;;;9.08;68.76;101333.69;5027141;28;19980;-64
2021/11/25 09:59:19;;;;;;;;;;;;;;;9.12;70.14;101330.25;5038051;28;19921;-65
2021/11/25 10:01:44;;;;;;;;;;;;;;;9.23;69.87;101333.00;5033087;28;19933;-64
2021/11/25 10:04:10;;;;;;;;;;;;;;;9.33;67.98;101335.72;5040188;28;20141;-65
2021/11/25 10:06:56;;;;;;;;;;;;;;;9.41;66.31;101338.44;5036759;28;19925;-65
2021/11/25 10:09:38;;;;;;;;;;;;;;;9.51;66.36;101339.44;5032623;28;19991;-64
2021/11/25 10:12:23;;;;;;;;;;;;;;;9.59;66.94;101336.91;5038829;28;20012;-66
2021/11/25 10:14:49;;;;;;;;;;;;;;;9.73;63.98;101333.56;5031332;28;19918;-64
2021/11/25 10:17:14;;;;;;;;;;;;;;;9.75;65.18;101346.66;5029650;28;19986;-64
2021/11/25 10:19:39;;;;;;;;;;;;;;;9.82;63.77;101345.00;5038388;28;19995;-67
2021/11/25 10:22:09;;;;;;;;;;;;;;;9.88;61.58;101351.16;5044501;28;19932;-64
2021/11/25 10:24:34;;;;;;;;;;;;;;;9.82;63.02;101342.38;5033682;28;19933;-65
2021/11/25 10:27:13;;;;;;;;;;;;;;;9.86;62.90;101352.03;5036123;28;19921;-66
2021/11/25 10:29:38;;;;;;;;;;;;;;;9.84;63.29;101352.00;5026809;28;19918;-65
2021/11/25 10:32:04;;;;;;;;;;;;;;;9.83;63.19;101358.13;5035382;28;20001;-65
2021/11/25 10:34:38;;;;;;;;;;;;;;;9.74;63.45;101365.91;5042366;28;19928;-64
2021/11/25 10:37:15;;;;;;;;;;;;;;;9.67;63.91;101362.31;5030898;28;19919;-64
2021/11/25 10:42:18;;;;;;;;;;;;;;;9.58;64.22;101359.59;5043356;28;19929;-63
2021/11/25 10:44:48;;;;;;;;;;;;;;;9.61;60.99;101361.41;5054984;28;20291;-63
2021/11/25 10:47:14;;;;;;;;;;;;;;;9.65;61.48;101365.81;5045116;28;20368;-60
2021/11/25 10:49:48;;;;;;;;;;;;;;;9.56;62.30;101359.63;5045462;28;19916;-62
2021/11/25 10:52:22;;;;;;;;;;;;;;;9.59;62.83;101364.00;5041870;28;19928;-62
2021/11/25 10:54:51;;;;;;;;;;;;;;;9.60;61.29;101357.00;5030706;28;19928;-62
2021/11/25 10:57:17;;;;;;;;;;;;;;;9.58;61.54;101354.34;5056477;28;19916;-64
2021/11/25 10:59:47;;;;;;;;;;;;;;;9.56;61.38;101351.75;5037027;28;19943;-65
2021/11/25 11:02:20;;;;;;;;;;;;;;;9.55;62.16;101365.72;5052715;28;20026;-62
2021/11/25 11:04:46;;;;;;;;;;;;;;;9.54;63.67;101361.31;5032996;28;19947;-61
2021/11/25 11:07:23;;;;;;;;;;;;;;;9.52;63.31;101364.78;5041065;28;20741;-60
2021/11/25 11:09:48;;;;;;;;;;;;;;;9.51;64.00;101360.44;5039740;28;19925;-63
2021/11/25 11:20:40;;;;;;;;;;;;;;;9.54;61.97;101352.56;5038402;28;19917;-63
2021/11/25 11:23:08;;;;;;;;;;;;;;;9.59;61.75;101358.75;5043917;28;19913;-62
2021/11/25 11:25:34;;;;;;;;;;;;;;;9.54;62.65;101347.31;5042515;28;20324;-62
2021/11/25 11:28:01;;;;;;;;;;;;;;;9.61;61.93;101351.78;5039919;28;19925;-62
2021/11/25 11:30:26;;;;;;;;;;;;;;;9.62;60.79;101347.41;5040644;28;19917;-63
2021/11/25 11:32:51;;;;;;;;;;;;;;;9.64;58.86;101340.41;5040578;28;19963;-61
2021/11/25 11:35:21;;;;;;;;;;;;;;;9.68;59.27;101340.50;5049006;28;19925;-62
2021/11/25 11:37:47;;;;;;;;;;;;;;;9.73;57.91;101346.66;5043740;28;19927;-61
2021/11/25 11:40:12;;;;;;;;;;;;;;;9.73;58.59;101344.03;5035472;28;19917;-60
2021/11/25 11:42:38;;;;;;;;;;;;;;;9.78;57.87;101341.44;5050290;28;19917;-63
2021/11/25 11:45:04;;;;;;;;;;;;;;;9.78;59.13;101345.81;5034852;28;19921;-63
2021/11/25 11:47:30;;;;;;;;;;;;;;;9.83;58.61;101342.38;5040836;28;20008;-63
2021/11/25 11:50:09;;;;;;;;;;;;;;;9.87;59.98;101341.53;5036908;28;19921;-63
2021/11/25 11:52:36;;;;;;;;;;;;;;;9.80;61.27;101351.97;5033229;28;19921;-62
2021/11/25 11:55:02;;;;;;;;;;;;;;;9.76;64.14;101351.94;5038817;28;19925;-62
2021/11/25 11:57:29;;;;;;;;;;;;;;;9.68;64.39;101356.22;5047603;28;20553;-64
2021/11/25 11:59:55;;;;;;;;;;;;;;;9.56;63.79;101356.09;5046981;28;19924;-65
2021/11/25 12:02:39;;;;;;;;;;;;;;;9.43;61.90;101341.09;5041093;28;19916;-63
2021/11/25 12:05:05;;;;;;;;;;;;;;;9.38;60.85;101334.94;5045527;28;19960;-65
2021/11/25 12:07:30;;;;;;;;;;;;;;;9.31;61.84;101332.22;5055591;28;20029;-63
2021/11/25 12:09:55;;;;;;;;;;;;;;;9.32;62.64;101330.50;5047333;28;19928;-66
2021/11/25 12:12:21;;;;;;;;;;;;;;;9.30;62.16;101327.84;5047062;28;19928;-64
2021/11/25 12:14:47;;;;;;;;;;;;;;;9.26;62.26;101331.31;5044311;28;19924;-65
2021/11/25 12:17:22;;;;;;;;;;;;;;;9.24;63.39;101322.50;5046316;28;20011;-64
2021/11/25 12:19:47;;;;;;;;;;;;;;;9.26;62.40;101307.69;5037995;28;19925;-64
2021/11/25 12:22:12;;;;;;;;;;;;;;;9.32;63.66;101315.63;5040563;28;20032;-64
2021/11/25 12:24:45;;;;;;;;;;;;;;;9.42;63.03;101307.88;5045987;28;19917;-64
2021/11/25 12:27:18;;;;;;;;;;;;;;;9.40;63.07;101304.34;5037901;28;19963;-66
2021/11/25 12:29:53;;;;;;;;;;;;;;;9.48;63.96;101307.91;5047798;28;19917;-64
2021/11/25 12:35:03;;;;;;;;;;;;;;;9.62;62.49;101306.31;5048204;28;19963;-65
2021/11/25 12:37:44;;;;;;;;;;;;;;;9.70;62.74;101304.63;5046775;28;19917;-64
2021/11/25 12:40:15;;;;;;;;;;;;;;;9.67;63.71;101304.59;5040839;28;19917;-65
2021/11/25 12:42:41;;;;;;;;;;;;;;;9.60;65.01;101304.53;5047398;28;19921;-65
2021/11/25 12:45:19;;;;;;;;;;;;;;;9.57;64.49;101301.00;5043688;28;20349;-65
2021/11/25 12:47:45;;;;;;;;;;;;;;;9.48;65.95;101302.66;5046164;28;19917;-65
2021/11/25 12:50:17;;;;;;;;;;;;;;;9.50;64.22;101299.19;5040191;28;19957;-65
2021/11/25 12:52:42;;;;;;;;;;;;;;;9.40;65.91;101292.09;5052312;28;20513;-66
2021/11/25 12:55:09;;;;;;;;;;;;;;;9.40;65.88;101288.59;5048612;28;20535;-64
2021/11/25 12:57:54;;;;;;;;;;;;;;;9.21;66.49;101291.03;5046592;28;20384;-65
2021/11/25 13:00:21;;;;;;;;;;;;;;;9.21;65.79;101283.16;5036740;28;20561;-64
2021/11/25 13:02:46;;;;;;;;;;;;;;;9.21;66.21;101283.16;5042005;28;19931;-64